Data for 03/05/2006

Time Sea-Level Adjusted Pressure Absolute Pressure Temperature Relative Humidity Dew Point   
(mb) (inHg) (mb) (inHg) (C) (F) (%) (C) (F)
00:05 1019 30.09 848 25.04 0 32 66 -5.7 21.8
00:10 1019 30.09 848 25.04 -0.1 31.8 67 -5.6 21.9
00:15 1019 30.09 848 25.04 -0.1 31.7 66 -5.7 21.8
00:20 1019 30.09 848 25.04 -0.2 31.6 67 -5.6 21.9
00:25 1019 30.09 848 25.04 -0.4 31.3 67 -5.7 21.7
00:30 1019 30.09 848 25.04 -0.3 31.4 67 -5.8 21.6
00:35 1019 30.09 848 25.04 -0.4 31.2 67 -5.8 21.5
00:40 1019 30.09 848 25.04 -0.5 31.1 68 -5.8 21.6
00:45 1019 30.09 848 25.04 -1.3 29.6 72 -5.7 21.8
00:50 1019 30.09 848 25.04 -1.8 28.7 72 -6.2 20.9
00:55 1019 30.09 848 25.04 -1.7 28.9 72 -6.2 20.9
01:00 1019 30.09 848 25.04 -1.5 29.4 70 -6.2 20.9
01:05 1019 30.09 848 25.04 -1.5 29.4 71 -6 21.2
01:10 1019 30.09 848 25.04 -2.2 28.1 75 -6.1 21
01:15 1019 30.09 848 25.04 -2.1 28.2 73 -6.4 20.5
01:20 1019 30.09 848 25.04 -1.3 29.7 69 -6.3 20.7
01:25 1019 30.09 848 25.04 -1 30.2 68 -6.1 21
01:30 1019 30.09 848 25.04 -1.3 29.6 69 -6.3 20.7
01:35 1019 30.09 848 25.04 -1.8 28.7 73 -6.1 21
01:40 1019 30.09 849 25.07 -1.9 28.5 71 -6.5 20.3
01:45 1019 30.09 848 25.04 -2 28.3 71 -6.5 20.2
01:50 1019 30.09 849 25.07 -1.8 28.7 70 -6.5 20.3
01:55 1019 30.09 849 25.07 -1.2 29.9 67 -6.5 20.3
02:00 1019 30.09 849 25.07 -1.4 29.5 69 -6.3 20.7
02:05 1019 30.09 849 25.07 -2.1 28.3 71 -6.6 20.1
02:10 1019 30.09 849 25.07 -2 28.3 70 -6.8 19.8
02:15 1019 30.09 848 25.04 -2.8 26.9 73 -7 19.5
02:20 1019 30.09 848 25.04 -3.6 25.5 77 -7.2 19.1
02:25 1019 30.09 848 25.04 -3.4 25.8 76 -7 19.3
02:30 1019 30.09 848 25.04 -2.7 27.2 74 -6.8 19.8
02:35 1019 30.09 848 25.04 -2.6 27.3 72 -7 19.4
02:40 1019 30.09 848 25.04 -3 26.6 73 -7.2 19.1
02:45 1019 30.09 849 25.07 -3.3 26.1 74 -7.2 19
02:50 1019 30.09 849 25.07 -3.6 25.5 75 -7.5 18.6
02:55 1019 30.09 849 25.07 -3.7 25.3 76 -7.4 18.6
03:00 1019 30.09 849 25.07 -4 24.8 77 -7.5 18.5
03:05 1019 30.09 849 25.07 -4 24.7 77 -7.6 18.4
03:10 1019 30.09 849 25.07 -3.9 25 75 -7.6 18.3
03:15 1019 30.09 849 25.07 -3.4 25.9 73 -7.5 18.4
03:20 1020 30.12 849 25.07 -3.7 25.4 74 -7.7 18.2
03:25 1019 30.09 849 25.07 -4 24.9 74 -7.9 17.9
03:30 1019 30.09 849 25.07 -4.2 24.4 76 -7.8 17.9
03:35 1019 30.09 849 25.07 -4.6 23.6 78 -8 17.6
03:40 1019 30.09 849 25.07 -4.7 23.5 77 -8.2 17.2
03:45 1019 30.09 849 25.07 -4.2 24.4 73 -8.4 16.9
03:50 1019 30.09 849 25.07 -3.1 26.4 69 -8 17.6
03:55 1019 30.09 849 25.07 -3.2 26.3 71 -7.7 18.2
04:00 1020 30.12 849 25.07 -3.2 26.2 71 -7.8 17.9
04:05 1020 30.12 849 25.07 -3.6 25.5 72 -8 17.6
04:10 1020 30.12 849 25.07 -3.8 25.1 72 -8.1 17.4
04:15 1020 30.12 849 25.07 -3.9 25.1 72 -8.2 17.2
04:20 1020 30.12 849 25.07 -3.9 24.9 72 -8.3 17
04:25 1020 30.12 849 25.07 -3.8 25.2 70 -8.4 16.9
04:30 1020 30.12 849 25.07 -3.6 25.4 70 -8.3 17.1
04:35 1020 30.12 849 25.07 -3.6 25.4 69 -8.4 16.8
04:40 1020 30.12 849 25.07 -3.3 26 67 -8.6 16.5
04:45 1020 30.12 849 25.07 -3.2 26.2 67 -8.5 16.6
04:50 1020 30.12 849 25.07 -3.2 26.3 66 -8.6 16.5
04:55 1020 30.12 849 25.07 -3.4 25.9 67 -8.7 16.3
05:00 1020 30.12 849 25.07 -3.3 26 66 -8.8 16.2
05:05 1020 30.12 849 25.07 -3.5 25.7 67 -8.9 16.1
05:10 1020 30.12 849 25.07 -3.6 25.5 66 -9.1 15.6
05:15 1020 30.12 849 25.07 -3.5 25.7 65 -9.2 15.5
05:20 1020 30.12 849 25.07 -3.4 25.8 65 -9.1 15.7
05:25 1020 30.12 849 25.07 -3.5 25.7 65 -9.1 15.7
05:30 1020 30.12 849 25.07 -3.8 25.2 67 -9 15.7
05:35 1020 30.12 849 25.07 -3.8 25.1 66 -9.3 15.2
05:40 1020 30.12 849 25.07 -4 24.8 67 -9.3 15.3
05:45 1020 30.12 849 25.07 -4.2 24.4 67 -9.4 15
05:50 1020 30.12 849 25.07 -4.2 24.4 68 -9.4 15.2
05:55 1020 30.12 849 25.07 -4.3 24.3 67 -9.5 15
06:00 1020 30.12 849 25.07 -4.4 24.2 68 -9.4 15
06:05 1020 30.12 849 25.07 -3.9 25 66 -9.4 15.1
06:10 1020 30.12 849 25.07 -4 24.8 67 -9.3 15.2
06:15 1020 30.12 849 25.07 -4.2 24.5 66 -9.6 14.7
06:20 1020 30.12 849 25.07 -4 24.7 65 -9.6 14.7
06:25 1020 30.12 849 25.07 -4 24.8 64 -9.8 14.3
06:30 1020 30.12 849 25.07 -4 24.8 65 -9.7 14.5
06:35 1020 30.12 849 25.07 -3.7 25.3 62 -9.9 14.1
06:40 1020 30.12 849 25.07 -3.5 25.7 62 -9.8 14.3
06:45 1020 30.12 849 25.07 -3.6 25.5 62 -9.8 14.3
06:50 1020 30.12 849 25.07 -3.8 25.2 62 -10.1 13.8
06:55 1020 30.12 849 25.07 -4.1 24.6 64 -10 14
07:00 1020 30.12 850 25.1 -4.4 24.1 64 -10.1 13.8
07:05 1020 30.12 850 25.1 -4.4 24.1 64 -10.2 13.6
07:10 1020 30.12 850 25.1 -4.3 24.3 63 -10.3 13.5
07:15 1020 30.12 850 25.1 -4.2 24.5 62 -10.4 13.3
07:20 1020 30.12 850 25.1 -3.9 25 62 -10.2 13.7
07:25 1020 30.12 850 25.1 -3.9 24.9 63 -10.1 13.8
07:30 1021 30.15 850 25.1 -3.9 25 62 -10.1 13.7
07:35 1021 30.15 850 25.1 -3.9 24.9 62 -10.2 13.7
07:40 1021 30.15 850 25.1 -4.1 24.7 62 -10.3 13.4
07:45 1021 30.15 850 25.1 -4.1 24.6 62 -10.3 13.4
07:50 1021 30.15 850 25.1 -3.8 25.2 61 -10.3 13.4
07:55 1021 30.15 850 25.1 -3.5 25.7 59 -10.4 13.2
08:00 1021 30.15 850 25.1 -3.3 26.1 58 -10.4 13.3
08:05 1021 30.15 850 25.1 -3.2 26.2 58 -10.3 13.5
08:10 1021 30.15 850 25.1 -3 26.6 57 -10.3 13.5
08:15 1021 30.15 850 25.1 -2.8 26.9 56 -10.4 13.3
08:20 1021 30.15 850 25.1 -2.6 27.2 57 -10 14
08:25 1021 30.15 850 25.1 -2.4 27.6 55 -10.2 13.6
08:30 1021 30.15 850 25.1 -2.3 27.8 55 -10.1 13.8
08:35 1021 30.15 850 25.1 -1.8 28.7 53 -10.1 13.8
08:40 1021 30.15 850 25.1 -1.6 29.1 54 -9.7 14.5
08:45 1021 30.15 850 25.1 -1.3 29.7 52 -9.8 14.3
08:50 1021 30.15 850 25.1 -1 30.2 50 -10.2 13.7
08:55 1021 30.15 850 25.1 -0.8 30.5 48 -10.4 13.2
09:00 1021 30.15 850 25.1 -0.5 31 48 -10.3 13.4
09:05 1021 30.15 850 25.1 -0.4 31.2 48 -10.1 13.8
09:10 1021 30.15 850 25.1 -0.3 31.5 48 -10 13.9
09:15 1021 30.15 850 25.1 0.4 32.6 47 -9.8 14.4
09:20 1021 30.15 850 25.1 0.5 32.9 47 -9.6 14.8
09:25 1021 30.15 850 25.1 0.2 32.4 48 -9.6 14.7
09:30 1021 30.15 850 25.1 0.3 32.6 47 -9.7 14.6
09:35 1021 30.15 850 25.1 0.4 32.8 47 -9.5 14.8
09:40 1021 30.15 850 25.1 0.8 33.4 46 -9.6 14.8
09:45 1021 30.15 850 25.1 1 33.7 46 -9.5 14.9
09:50 1021 30.15 850 25.1 1.6 34.9 41 -10.2 13.7
09:55 1021 30.15 850 25.1 2.3 36.1 40 -10 14.1
10:00 1021 30.15 850 25.1 1.8 35.2 41 -10.1 13.9
10:05 1021 30.15 850 25.1 1.6 34.9 41 -10.3 13.5
10:10 1021 30.15 850 25.1 2.2 36 39 -10.5 13.1
10:15 1021 30.15 850 25.1 2.5 36.6 38 -10.5 13
10:20 1021 30.15 850 25.1 3.1 37.5 35 -10.8 12.5
10:25 1021 30.15 850 25.1 3.4 38.1 34 -10.9 12.4
10:30 1021 30.15 850 25.1 3.6 38.6 35 -10.4 13.3
10:35 1021 30.15 850 25.1 4.1 39.4 34 -10.5 13.1
10:40 1021 30.15 850 25.1 4.1 39.5 33 -10.7 12.7
10:45 1021 30.15 850 25.1 4.7 40.4 31 -10.9 12.4
10:50 1021 30.15 850 25.1 5.3 41.5 29 -11.5 11.2
10:55 1021 30.15 850 25.1 5.3 41.5 27 -12.1 10.2
11:00 1021 30.15 850 25.1 5.6 42 29 -11.3 11.6
11:05 1021 30.15 850 25.1 5.6 42.1 30 -10.7 12.7
11:10 1021 30.15 850 25.1 5.4 41.7 30 -10.9 12.4
11:15 1021 30.15 850 25.1 6 42.7 29 -10.8 12.6
11:20 1021 30.15 850 25.1 6.7 44 27 -11 12.3
11:25 1021 30.15 850 25.1 6 42.8 28 -11.3 11.7
11:30 1021 30.15 850 25.1 6 42.9 29 -10.7 12.8
11:35 1021 30.15 850 25.1 6.9 44.5 27 -10.8 12.6
11:40 1021 30.15 850 25.1 7.4 45.2 28 -10 13.9
11:45 1021 30.15 850 25.1 6.9 44.5 28 -10.2 13.6
11:50 1021 30.15 850 25.1 6.8 44.3 28 -10.5 13.2
11:55 1021 30.15 850 25.1 6.8 44.3 27 -10.8 12.6
12:00 1021 30.15 850 25.1 6.7 44 29 -10.2 13.6
12:05 1021 30.15 850 25.1 5.4 41.8 30 -10.9 12.5
12:10 1021 30.15 850 25.1 5.5 41.8 30 -11 12.2
12:15 1021 30.15 850 25.1 4.9 40.9 31 -11 12.2
12:20 1021 30.15 850 25.1 5 41 32 -10.3 13.4
12:25 1021 30.15 850 25.1 5.3 41.5 33 -9.8 14.4
12:30 1020 30.12 850 25.1 5.9 42.7 29 -11 12.2
12:35 1020 30.12 850 25.1 5.3 41.5 28 -11.9 10.6
12:40 1020 30.12 850 25.1 5.5 41.9 26 -12.4 9.6
12:45 1020 30.12 849 25.07 5.3 41.5 29 -11.4 11.5
12:50 1020 30.12 849 25.07 5.7 42.2 30 -10.8 12.5
12:55 1020 30.12 849 25.07 5.4 41.7 29 -11.4 11.4
13:00 1020 30.12 849 25.07 5.9 42.7 28 -11.4 11.5
13:05 1020 30.12 849 25.07 6.7 44 24 -12.3 9.8
13:10 1020 30.12 849 25.07 6.1 43 23 -13.5 7.6
13:15 1020 30.12 849 25.07 5.9 42.6 26 -12.2 10.1
13:20 1020 30.12 849 25.07 6.5 43.8 25 -12.1 10.2
13:25 1020 30.12 849 25.07 6.7 44 26 -11.5 11.3
13:30 1020 30.12 849 25.07 6.8 44.3 24 -12.2 10
13:35 1020 30.12 849 25.07 6.2 43.1 25 -12.2 10
13:40 1020 30.12 849 25.07 6.2 43.1 24 -13.2 8.2
13:45 1019 30.09 849 25.07 5.8 42.5 23 -13.6 7.5
13:50 1019 30.09 849 25.07 7.1 44.8 22 -13.3 8
13:55 1019 30.09 849 25.07 7.6 45.7 22 -12.8 9
14:00 1019 30.09 849 25.07 7.6 45.7 22 -12.8 8.9
14:05 1019 30.09 849 25.07 7.6 45.8 22 -13 8.6
14:10 1019 30.09 849 25.07 7.2 44.9 23 -12.8 8.9
14:15 1019 30.09 849 25.07 7.4 45.3 26 -11.1 11.9
14:20 1019 30.09 848 25.04 7.4 45.3 24 -11.9 10.5
14:25 1019 30.09 848 25.04 7.7 45.9 23 -12.1 10.1
14:30 1019 30.09 848 25.04 8.1 46.6 24 -11.4 11.4
14:35 1019 30.09 848 25.04 7.7 45.8 25 -11 12.2
14:40 1019 30.09 848 25.04 7.6 45.8 26 -10.5 13
14:45 1019 30.09 848 25.04 7.3 45.1 27 -10.7 12.7
14:50 1019 30.09 848 25.04 7.8 46.1 25 -11 12.1
14:55 1019 30.09 848 25.04 7.9 46.3 26 -10.6 12.9
15:00 1019 30.09 848 25.04 7.5 45.4 25 -11.6 11.1
15:05 1019 30.09 848 25.04 7.9 46.3 24 -11.2 11.8
15:10 1019 30.09 848 25.04 8.1 46.6 24 -11.5 11.2
15:15 1019 30.09 848 25.04 8.3 46.9 22 -12.3 9.9
15:20 1019 30.09 848 25.04 8.3 46.9 22 -12.3 9.8
15:25 1019 30.09 848 25.04 7.7 45.8 25 -11.4 11.5
15:30 1019 30.09 848 25.04 8.1 46.5 23 -11.7 11
15:35 1019 30.09 848 25.04 7.4 45.4 25 -11.3 11.6
15:40 1019 30.09 848 25.04 7.3 45.2 24 -11.9 10.6
15:45 1019 30.09 848 25.04 7.5 45.4 25 -11.5 11.3
15:50 1019 30.09 848 25.04 7.7 45.9 23 -12.3 9.8
15:55 1019 30.09 848 25.04 8.4 47.2 22 -12 10.4
16:00 1019 30.09 848 25.04 9.1 48.4 21 -12.2 10
16:05 1019 30.09 848 25.04 8.5 47.4 22 -11.9 10.6
16:10 1019 30.09 848 25.04 7.9 46.1 22 -12.6 9.4
16:15 1019 30.09 848 25.04 8 46.3 22 -12.4 9.7
16:20 1019 30.09 848 25.04 8.6 47.4 21 -12.5 9.5
16:25 1019 30.09 848 25.04 9.2 48.6 20 -12.7 9.1
16:30 1019 30.09 848 25.04 9.8 49.6 20 -12.4 9.6
16:35 1019 30.09 848 25.04 9.7 49.4 21 -11.5 11.2
16:40 1019 30.09 848 25.04 8.6 47.5 23 -11.6 11.2
16:45 1019 30.09 848 25.04 8.8 47.9 22 -11.7 10.9
16:50 1019 30.09 848 25.04 9.2 48.6 22 -11.7 10.9
16:55 1019 30.09 848 25.04 8.7 47.6 24 -11 12.2
17:00 1019 30.09 848 25.04 8.4 47.2 23 -11.3 11.6
17:05 1019 30.09 848 25.04 7.9 46.2 24 -11.4 11.5
17:10 1019 30.09 848 25.04 7.3 45.1 25 -11.3 11.6
17:15 1019 30.09 848 25.04 7.2 45 25 -11.5 11.3
17:20 1019 30.09 848 25.04 7.1 44.8 30 -9.3 15.2
17:25 1019 30.09 848 25.04 6.6 43.8 33 -8.7 16.4
17:30 1019 30.09 848 25.04 6.4 43.5 32 -9.2 15.4
17:35 1019 30.09 848 25.04 6.1 43 33 -8.9 16.1
17:40 1019 30.09 848 25.04 5.8 42.4 33 -9.4 15.1
17:45 1019 30.09 848 25.04 5.7 42.3 32 -9.9 14.3
17:50 1019 30.09 848 25.04 6.1 42.9 32 -9.5 14.9
17:55 1019 30.09 848 25.04 6.2 43.1 32 -9.4 15.1
18:00 1019 30.09 848 25.04 5.9 42.6 32 -9.5 14.9
18:05 1019 30.09 848 25.04 5.7 42.3 32 -9.7 14.5
18:10 1019 30.09 848 25.04 5.6 42.2 32 -9.8 14.3
18:15 1019 30.09 848 25.04 5.4 41.6 33 -9.7 14.6
18:20 1019 30.09 848 25.04 5.2 41.4 33 -9.6 14.7
18:25 1019 30.09 848 25.04 4.6 40.2 36 -9.4 15.1
18:30 1019 30.09 848 25.04 4.1 39.3 41 -8.2 17.3
18:35 1019 30.09 848 25.04 4.4 39.9 35 -9.6 14.7
18:40 1019 30.09 848 25.04 4.4 39.8 35 -9.9 14.3
18:45 1019 30.09 848 25.04 4.2 39.6 33 -10.6 12.9
18:50 1019 30.09 848 25.04 4.2 39.6 41 -7.9 17.8
18:55 1019 30.09 848 25.04 4 39.2 35 -10 14
19:00 1019 30.09 848 25.04 3.7 38.7 41 -8.5 16.8
19:05 1019 30.09 848 25.04 3.4 38.1 42 -8.3 17.1
19:10 1019 30.09 848 25.04 3.4 38.1 40 -8.9 16.1
19:15 1019 30.09 848 25.04 3.3 37.9 41 -8.7 16.4
19:20 1019 30.09 848 25.04 3.2 37.8 43 -8.1 17.3
19:25 1019 30.09 848 25.04 3.3 38 39 -9.4 15.1
19:30 1019 30.09 848 25.04 3.1 37.7 42 -8.5 16.7
19:35 1019 30.09 848 25.04 3.1 37.5 43 -8.3 17
19:40 1019 30.09 848 25.04 2.6 36.7 46 -8 17.6
19:45 1019 30.09 848 25.04 2.5 36.4 43 -9 15.9
19:50 1018 30.06 848 25.04 3.1 37.5 38 -9.8 14.4
19:55 1018 30.06 848 25.04 3.5 38.2 39 -9.4 15.1
20:00 1018 30.06 848 25.04 3.6 38.4 39 -9.2 15.4
20:05 1018 30.06 847 25.01 3.7 38.6 39 -9.1 15.6
20:10 1018 30.06 848 25.04 3.8 38.9 39 -8.9 16
20:15 1018 30.06 848 25.04 3.7 38.7 40 -8.8 16.2
20:20 1018 30.06 848 25.04 3.6 38.5 41 -8.6 16.5
20:25 1018 30.06 847 25.01 3.5 38.4 39 -9.2 15.4
20:30 1018 30.06 847 25.01 3.8 38.8 38 -9.3 15.3
20:35 1018 30.06 847 25.01 3.8 38.8 38 -9.2 15.5
20:40 1018 30.06 847 25.01 3.9 38.9 38 -9.3 15.3
20:45 1018 30.06 847 25.01 3.8 38.8 38 -9.3 15.2
20:50 1018 30.06 847 25.01 3.8 38.8 38 -9.5 15
20:55 1018 30.06 847 25.01 3.7 38.6 39 -9 15.7
21:00 1018 30.06 847 25.01 3.5 38.2 39 -9.2 15.5
21:05 1018 30.06 847 25.01 3.5 38.3 38 -9.4 15.1
21:10 1018 30.06 847 25.01 3.5 38.4 38 -9.6 14.7
21:15 1018 30.06 847 25.01 3.6 38.5 37 -9.8 14.4
21:20 1018 30.06 847 25.01 3.8 38.8 36 -10 14
21:25 1018 30.06 847 25.01 3.7 38.7 36 -10 13.9
21:30 1018 30.06 847 25.01 3.8 38.8 37 -9.7 14.5
21:35 1018 30.06 847 25.01 3.6 38.5 38 -9.6 14.8
21:40 1018 30.06 847 25.01 3.3 38 37 -10 14.1
21:45 1018 30.06 847 25.01 3.6 38.4 37 -9.9 14.2
21:50 1018 30.06 847 25.01 3.4 38 38 -9.6 14.8
21:55 1018 30.06 847 25.01 3.2 37.8 39 -9.5 14.9
22:00 1018 30.06 847 25.01 3.2 37.8 39 -9.4 15.1
22:05 1018 30.06 847 25.01 2.9 37.2 41 -9.1 15.5
22:10 1018 30.06 847 25.01 2.9 37.2 40 -9.4 15.2
22:15 1018 30.06 847 25.01 2.9 37.2 41 -9.1 15.6
22:20 1018 30.06 847 25.01 2.6 36.7 43 -8.8 16.2
22:25 1018 30.06 847 25.01 2.5 36.5 41 -9.4 15
22:30 1018 30.06 847 25.01 2.5 36.4 43 -8.8 16.2
22:35 1018 30.06 847 25.01 2.3 36.1 43 -8.9 16
22:40 1017 30.03 847 25.01 2 35.5 45 -8.9 16
22:45 1018 30.06 847 25.01 2.1 35.7 44 -8.8 16.1
22:50 1018 30.06 847 25.01 1.8 35.3 46 -8.7 16.3
22:55 1018 30.06 847 25.01 1.9 35.5 44 -9.1 15.7
23:00 1018 30.06 847 25.01 2.1 35.7 44 -8.9 16
23:05 1018 30.06 847 25.01 2.3 36.1 42 -9.4 15.1
23:10 1018 30.06 847 25.01 2.6 36.6 42 -9.1 15.7
23:15 1018 30.06 847 25.01 2.3 36.2 45 -8.6 16.6
23:20 1018 30.06 847 25.01 1.9 35.5 46 -8.5 16.7
23:25 1018 30.06 847 25.01 1.7 35.1 46 -8.7 16.3
23:30 1017 30.03 847 25.01 1.8 35.3 45 -8.7 16.3
23:35 1017 30.03 847 25.01 2 35.7 45 -8.7 16.3
23:40 1017 30.03 847 25.01 1.8 35.2 45 -8.8 16.1
23:45 1017 30.03 847 25.01 1.8 35.2 45 -8.8 16.1
23:50 1017 30.03 847 25.01 1.9 35.3 45 -9 15.9
23:55 1017 30.03 847 25.01 1.9 35.4 46 -8.6 16.5
24:00 1017 30.03 846 24.98 1.9 35.3 46 -8.6 16.6